Hlavní strana
METAR-TAF:

METAR-TAF

Letiště :

Punta Arenas, Chile

zeměpisná šířka: 53-00S, zeměpisná délka: 070-51W, výška: 37 m

Aktuální stav počasí

Zpráva byla vytvořena před 45 minutami, v 16:00 UTC
Východní vítr 6 kt
Teplota 5°C
Vlhkost vzduchu 65%
Tlak 1009 hPa
Viditelnost 10 km a více
Skoro jasno ve výšce 4000 ft

METAR: SCCI 191600Z 09006KT 9999 FEW040 05/M01 Q1009 NOSIG

Čas: 13:45 (16:45 UTC)

Předpověď počasí

Zpráva byla vytvořena před 6 hodinami a 3 minutami, v 10:42 UTC
Předpověď platná od 19 v 12 UTC do 20 v 12 UTC
Jihozápadní vítr 5 kt
Viditelnost 10 km a více
Polojasno ve výšce 3800 ft
Dočasný
od 19 v 12 UTC do 19 v 21 UTC
vítr z různých směrů 3 kt
Změna
od 19 v 13 UTC do 19 v 15 UTC
Skoro jasno ve výšce 4000 ft
Změna
od 20 v 07 UTC do 20 v 09 UTC
Jižní vítr 7 kt

TAF: SCCI 191042Z 1912/2012 23005KT 9999 SCT038 TN00/2012Z TX07/1918Z TEMPO 1912/1921 VRB03KT BECMG 1913/1915 FEW040 BECMG 2007/2009 18007KT

Stav a předpovědi počasí z více než 4 000 letišť (zprávy METAR a TAF).

Červené a žluté tečky na mapě představují dostupné meteorologické stanice.

Když kurzor umístíte na tečku, zobrazí se název stanice.

Pak kliknutím zobrazíte stav a předpověď počasí.

Chcete-li změnit mapu, kliknutím na zelené tlačítko se znaménkem +mapu přiblížíte, kliknutím na zelené tlačítko se znaménkem – mapu oddálíte a kliknutím na zelené šipky přejdete na sousední mapy.


METAR-TAF: